sensor_id;sensor_type;location;lat;lon;timestamp;temperature;humidity
20418;DHT22;10368;51.436;6.774;2022-11-15T00:00:56;10.40;99.90
20418;DHT22;10368;51.436;6.774;2022-11-15T00:03:27;10.40;99.90
20418;DHT22;10368;51.436;6.774;2022-11-15T00:05:54;10.50;99.90
20418;DHT22;10368;51.436;6.774;2022-11-15T00:08:21;10.60;99.90
20418;DHT22;10368;51.436;6.774;2022-11-15T00:10:58;10.50;99.90
20418;DHT22;10368;51.436;6.774;2022-11-15T00:13:25;10.50;99.90
20418;DHT22;10368;51.436;6.774;2022-11-15T00:15:52;10.50;99.90
20418;DHT22;10368;51.436;6.774;2022-11-15T00:18:19;10.50;99.90
20418;DHT22;10368;51.436;6.774;2022-11-15T00:23:13;10.40;99.90
20418;DHT22;10368;51.436;6.774;2022-11-15T00:25:39;10.40;99.90
20418;DHT22;10368;51.436;6.774;2022-11-15T00:28:07;10.40;99.90
20418;DHT22;10368;51.436;6.774;2022-11-15T00:30:33;10.40;99.90
20418;DHT22;10368;51.436;6.774;2022-11-15T00:33:02;10.50;99.90
20418;DHT22;10368;51.436;6.774;2022-11-15T00:35:32;10.50;99.90
20418;DHT22;10368;51.436;6.774;2022-11-15T00:38:00;10.50;99.90
20418;DHT22;10368;51.436;6.774;2022-11-15T00:40:27;10.50;99.90
20418;DHT22;10368;51.436;6.774;2022-11-15T00:42:54;10.50;99.90
20418;DHT22;10368;51.436;6.774;2022-11-15T00:45:22;10.50;99.90
20418;DHT22;10368;51.436;6.774;2022-11-15T00:47:49;10.60;99.90
20418;DHT22;10368;51.436;6.774;2022-11-15T00:50:16;10.60;99.90
20418;DHT22;10368;51.436;6.774;2022-11-15T00:52:43;10.60;99.90
20418;DHT22;10368;51.436;6.774;2022-11-15T00:55:17;10.60;99.90
20418;DHT22;10368;51.436;6.774;2022-11-15T00:57:44;10.60;99.90
20418;DHT22;10368;51.436;6.774;2022-11-15T01:00:11;10.70;99.90
20418;DHT22;10368;51.436;6.774;2022-11-15T01:02:38;10.70;99.90
20418;DHT22;10368;51.436;6.774;2022-11-15T01:05:05;10.80;99.90
20418;DHT22;10368;51.436;6.774;2022-11-15T01:07:32;10.80;99.90
20418;DHT22;10368;51.436;6.774;2022-11-15T01:09:59;10.90;99.90
20418;DHT22;10368;51.436;6.774;2022-11-15T01:12:26;10.80;99.90
20418;DHT22;10368;51.436;6.774;2022-11-15T01:14:52;10.90;99.90
20418;DHT22;10368;51.436;6.774;2022-11-15T01:17:19;10.90;99.90
20418;DHT22;10368;51.436;6.774;2022-11-15T01:19:46;10.90;99.90
20418;DHT22;10368;51.436;6.774;2022-11-15T01:22:13;11.00;99.90
20418;DHT22;10368;51.436;6.774;2022-11-15T01:24:40;11.00;99.90
20418;DHT22;10368;51.436;6.774;2022-11-15T01:27:07;11.10;99.90
20418;DHT22;10368;51.436;6.774;2022-11-15T01:29:34;11.10;99.90
20418;DHT22;10368;51.436;6.774;2022-11-15T01:32:00;11.10;99.90
20418;DHT22;10368;51.436;6.774;2022-11-15T01:34:27;11.10;99.90
20418;DHT22;10368;51.436;6.774;2022-11-15T01:36:54;11.20;99.90
20418;DHT22;10368;51.436;6.774;2022-11-15T01:39:20;11.20;99.90
20418;DHT22;10368;51.436;6.774;2022-11-15T01:41:47;11.20;99.90
20418;DHT22;10368;51.436;6.774;2022-11-15T01:44:51;11.20;99.90
20418;DHT22;10368;51.436;6.774;2022-11-15T01:50:19;11.30;99.90
20418;DHT22;10368;51.436;6.774;2022-11-15T01:52:48;11.40;99.90
20418;DHT22;10368;51.436;6.774;2022-11-15T01:55:22;11.40;99.90
20418;DHT22;10368;51.436;6.774;2022-11-15T01:57:54;11.30;99.90
20418;DHT22;10368;51.436;6.774;2022-11-15T02:00:21;11.40;99.90
20418;DHT22;10368;51.436;6.774;2022-11-15T02:02:48;11.40;99.90
20418;DHT22;10368;51.436;6.774;2022-11-15T02:05:15;11.30;99.90
20418;DHT22;10368;51.436;6.774;2022-11-15T02:07:42;11.40;99.90
20418;DHT22;10368;51.436;6.774;2022-11-15T02:10:16;11.40;99.90
20418;DHT22;10368;51.436;6.774;2022-11-15T02:12:45;11.30;99.90
20418;DHT22;10368;51.436;6.774;2022-11-15T02:15:12;11.40;99.90
20418;DHT22;10368;51.436;6.774;2022-11-15T02:23:57;11.40;99.90
20418;DHT22;10368;51.436;6.774;2022-11-15T02:27:00;11.40;99.90
20418;DHT22;10368;51.436;6.774;2022-11-15T02:32:22;11.40;99.90
20418;DHT22;10368;51.436;6.774;2022-11-15T02:37:43;11.50;99.90
20418;DHT22;10368;51.436;6.774;2022-11-15T02:42:53;11.50;99.90
20418;DHT22;10368;51.436;6.774;2022-11-15T02:45:47;11.50;99.90
20418;DHT22;10368;51.436;6.774;2022-11-15T02:48:15;11.50;99.90
20418;DHT22;10368;51.436;6.774;2022-11-15T02:50:43;11.60;99.90
20418;DHT22;10368;51.436;6.774;2022-11-15T02:53:11;11.60;99.90
20418;DHT22;10368;51.436;6.774;2022-11-15T02:55:43;11.60;99.90
20418;DHT22;10368;51.436;6.774;2022-11-15T03:01:26;11.70;99.90
20418;DHT22;10368;51.436;6.774;2022-11-15T03:04:16;11.70;99.90
20418;DHT22;10368;51.436;6.774;2022-11-15T03:10:02;11.60;99.90
20418;DHT22;10368;51.436;6.774;2022-11-15T03:13:03;11.70;99.90
20418;DHT22;10368;51.436;6.774;2022-11-15T03:15:38;11.70;99.90
20418;DHT22;10368;51.436;6.774;2022-11-15T03:18:19;11.80;99.90
20418;DHT22;10368;51.436;6.774;2022-11-15T03:20:48;11.80;99.90
20418;DHT22;10368;51.436;6.774;2022-11-15T03:23:17;11.90;99.90
20418;DHT22;10368;51.436;6.774;2022-11-15T03:25:48;11.90;99.90
20418;DHT22;10368;51.436;6.774;2022-11-15T03:28:22;11.90;99.90
20418;DHT22;10368;51.436;6.774;2022-11-15T03:30:51;11.90;99.90
20418;DHT22;10368;51.436;6.774;2022-11-15T03:33:19;11.90;99.90
20418;DHT22;10368;51.436;6.774;2022-11-15T03:35:47;11.90;99.90
20418;DHT22;10368;51.436;6.774;2022-11-15T03:38:26;11.90;99.90
20418;DHT22;10368;51.436;6.774;2022-11-15T03:41:01;11.90;99.90
20418;DHT22;10368;51.436;6.774;2022-11-15T03:43:53;12.00;99.90
20418;DHT22;10368;51.436;6.774;2022-11-15T03:49:34;12.00;99.90
20418;DHT22;10368;51.436;6.774;2022-11-15T03:52:02;12.00;99.90
20418;DHT22;10368;51.436;6.774;2022-11-15T03:54:30;12.10;99.90
20418;DHT22;10368;51.436;6.774;2022-11-15T03:56:57;12.10;99.90
20418;DHT22;10368;51.436;6.774;2022-11-15T03:59:24;12.10;99.90
20418;DHT22;10368;51.436;6.774;2022-11-15T04:01:51;12.10;99.90
20418;DHT22;10368;51.436;6.774;2022-11-15T04:04:17;12.10;99.90
20418;DHT22;10368;51.436;6.774;2022-11-15T04:06:44;12.10;99.90
20418;DHT22;10368;51.436;6.774;2022-11-15T04:09:11;12.10;99.90
20418;DHT22;10368;51.436;6.774;2022-11-15T04:11:38;12.10;99.90
20418;DHT22;10368;51.436;6.774;2022-11-15T04:14:05;12.10;99.90
20418;DHT22;10368;51.436;6.774;2022-11-15T04:16:31;12.20;99.90
20418;DHT22;10368;51.436;6.774;2022-11-15T04:18:58;12.10;99.90
20418;DHT22;10368;51.436;6.774;2022-11-15T04:21:43;12.10;99.90
20418;DHT22;10368;51.436;6.774;2022-11-15T04:24:29;12.20;99.90
20418;DHT22;10368;51.436;6.774;2022-11-15T04:26:55;12.20;99.90
20418;DHT22;10368;51.436;6.774;2022-11-15T04:29:22;12.20;99.90
20418;DHT22;10368;51.436;6.774;2022-11-15T04:32:03;12.20;99.90
20418;DHT22;10368;51.436;6.774;2022-11-15T04:34:30;12.20;99.90
20418;DHT22;10368;51.436;6.774;2022-11-15T04:36:57;12.20;99.90
20418;DHT22;10368;51.436;6.774;2022-11-15T04:39:40;12.20;99.90
20418;DHT22;10368;51.436;6.774;2022-11-15T04:42:08;12.30;99.90
20418;DHT22;10368;51.436;6.774;2022-11-15T04:44:35;12.30;99.90
20418;DHT22;10368;51.436;6.774;2022-11-15T04:47:02;12.30;99.90
20418;DHT22;10368;51.436;6.774;2022-11-15T04:49:29;12.30;99.90
20418;DHT22;10368;51.436;6.774;2022-11-15T04:51:56;12.30;99.90
20418;DHT22;10368;51.436;6.774;2022-11-15T04:54:23;12.30;99.90
20418;DHT22;10368;51.436;6.774;2022-11-15T04:56:49;12.40;99.90
20418;DHT22;10368;51.436;6.774;2022-11-15T04:59:16;12.30;99.90
20418;DHT22;10368;51.436;6.774;2022-11-15T05:01:43;12.40;99.90
20418;DHT22;10368;51.436;6.774;2022-11-15T05:04:11;12.30;99.90
20418;DHT22;10368;51.436;6.774;2022-11-15T05:06:48;12.30;99.90
20418;DHT22;10368;51.436;6.774;2022-11-15T05:09:17;12.30;99.90
20418;DHT22;10368;51.436;6.774;2022-11-15T05:11:44;12.30;99.90
20418;DHT22;10368;51.436;6.774;2022-11-15T05:14:11;12.30;99.90
20418;DHT22;10368;51.436;6.774;2022-11-15T05:16:38;12.30;99.90
20418;DHT22;10368;51.436;6.774;2022-11-15T05:19:06;12.30;99.90
20418;DHT22;10368;51.436;6.774;2022-11-15T05:21:33;12.30;99.90
20418;DHT22;10368;51.436;6.774;2022-11-15T05:24:00;12.40;99.90
20418;DHT22;10368;51.436;6.774;2022-11-15T05:26:27;12.40;99.90
20418;DHT22;10368;51.436;6.774;2022-11-15T05:28:56;12.40;99.90
20418;DHT22;10368;51.436;6.774;2022-11-15T05:31:23;12.30;99.90
20418;DHT22;10368;51.436;6.774;2022-11-15T05:33:51;12.30;99.90
20418;DHT22;10368;51.436;6.774;2022-11-15T05:38:58;12.30;99.90
20418;DHT22;10368;51.436;6.774;2022-11-15T05:41:33;12.30;99.90
20418;DHT22;10368;51.436;6.774;2022-11-15T05:44:03;12.30;99.90
20418;DHT22;10368;51.436;6.774;2022-11-15T05:46:33;12.30;99.90
20418;DHT22;10368;51.436;6.774;2022-11-15T05:49:00;12.30;99.90
20418;DHT22;10368;51.436;6.774;2022-11-15T05:51:28;12.30;99.90
20418;DHT22;10368;51.436;6.774;2022-11-15T05:53:56;12.30;99.90
20418;DHT22;10368;51.436;6.774;2022-11-15T05:56:25;12.20;99.90
20418;DHT22;10368;51.436;6.774;2022-11-15T05:58:53;12.30;99.90
20418;DHT22;10368;51.436;6.774;2022-11-15T06:01:26;12.30;99.90
20418;DHT22;10368;51.436;6.774;2022-11-15T06:03:53;12.30;99.90
20418;DHT22;10368;51.436;6.774;2022-11-15T06:06:20;12.30;99.90
20418;DHT22;10368;51.436;6.774;2022-11-15T06:08:47;12.30;99.90
20418;DHT22;10368;51.436;6.774;2022-11-15T06:11:14;12.30;99.90
20418;DHT22;10368;51.436;6.774;2022-11-15T06:13:41;12.20;99.90
20418;DHT22;10368;51.436;6.774;2022-11-15T06:16:08;12.20;99.90
20418;DHT22;10368;51.436;6.774;2022-11-15T06:18:35;12.20;99.90
20418;DHT22;10368;51.436;6.774;2022-11-15T06:21:03;12.20;99.90
20418;DHT22;10368;51.436;6.774;2022-11-15T06:23:34;12.20;99.90
20418;DHT22;10368;51.436;6.774;2022-11-15T06:26:02;12.20;99.90
20418;DHT22;10368;51.436;6.774;2022-11-15T06:28:30;12.20;99.90
20418;DHT22;10368;51.436;6.774;2022-11-15T06:31:05;12.20;99.90
20418;DHT22;10368;51.436;6.774;2022-11-15T06:33:32;12.20;99.90
20418;DHT22;10368;51.436;6.774;2022-11-15T06:36:04;12.20;99.90
20418;DHT22;10368;51.436;6.774;2022-11-15T06:38:32;12.20;99.90
20418;DHT22;10368;51.436;6.774;2022-11-15T06:41:07;12.20;99.90
20418;DHT22;10368;51.436;6.774;2022-11-15T06:43:35;12.20;99.90
20418;DHT22;10368;51.436;6.774;2022-11-15T06:46:03;12.20;99.90
20418;DHT22;10368;51.436;6.774;2022-11-15T06:48:32;12.30;99.90
20418;DHT22;10368;51.436;6.774;2022-11-15T06:51:00;12.30;99.90
20418;DHT22;10368;51.436;6.774;2022-11-15T06:53:27;12.30;99.90
20418;DHT22;10368;51.436;6.774;2022-11-15T06:56:01;12.30;99.90
20418;DHT22;10368;51.436;6.774;2022-11-15T06:58:29;12.20;99.90
20418;DHT22;10368;51.436;6.774;2022-11-15T07:01:08;12.20;99.90
20418;DHT22;10368;51.436;6.774;2022-11-15T07:03:37;12.30;99.90
20418;DHT22;10368;51.436;6.774;2022-11-15T07:06:04;12.30;99.90
20418;DHT22;10368;51.436;6.774;2022-11-15T07:08:33;12.20;99.90
20418;DHT22;10368;51.436;6.774;2022-11-15T07:11:03;12.20;99.90
20418;DHT22;10368;51.436;6.774;2022-11-15T07:13:31;12.30;99.90
20418;DHT22;10368;51.436;6.774;2022-11-15T07:16:03;12.20;99.90
20418;DHT22;10368;51.436;6.774;2022-11-15T07:18:30;12.30;99.90
20418;DHT22;10368;51.436;6.774;2022-11-15T07:21:01;12.30;99.90
20418;DHT22;10368;51.436;6.774;2022-11-15T07:23:28;12.30;99.90
20418;DHT22;10368;51.436;6.774;2022-11-15T07:25:58;12.40;99.90
20418;DHT22;10368;51.436;6.774;2022-11-15T07:28:26;12.30;99.90
20418;DHT22;10368;51.436;6.774;2022-11-15T07:30:54;12.40;99.90
20418;DHT22;10368;51.436;6.774;2022-11-15T07:33:20;12.30;99.90
20418;DHT22;10368;51.436;6.774;2022-11-15T07:35:47;12.40;99.90
20418;DHT22;10368;51.436;6.774;2022-11-15T07:38:17;12.40;99.90
20418;DHT22;10368;51.436;6.774;2022-11-15T07:40:46;12.40;99.90
20418;DHT22;10368;51.436;6.774;2022-11-15T07:43:13;12.40;99.90
20418;DHT22;10368;51.436;6.774;2022-11-15T07:45:44;12.40;99.90
20418;DHT22;10368;51.436;6.774;2022-11-15T07:48:11;12.40;99.90
20418;DHT22;10368;51.436;6.774;2022-11-15T07:50:42;12.50;99.90
20418;DHT22;10368;51.436;6.774;2022-11-15T07:53:09;12.50;99.90
20418;DHT22;10368;51.436;6.774;2022-11-15T07:55:39;12.50;99.90
20418;DHT22;10368;51.436;6.774;2022-11-15T07:58:10;12.50;99.90
20418;DHT22;10368;51.436;6.774;2022-11-15T08:00:38;12.50;99.90
20418;DHT22;10368;51.436;6.774;2022-11-15T08:03:13;12.40;99.90
20418;DHT22;10368;51.436;6.774;2022-11-15T08:05:41;12.40;99.90
20418;DHT22;10368;51.436;6.774;2022-11-15T08:08:09;12.10;99.90
20418;DHT22;10368;51.436;6.774;2022-11-15T08:10:37;12.00;99.90
20418;DHT22;10368;51.436;6.774;2022-11-15T08:13:09;11.80;99.90
20418;DHT22;10368;51.436;6.774;2022-11-15T08:15:37;11.70;99.90
20418;DHT22;10368;51.436;6.774;2022-11-15T08:18:12;11.60;99.90
20418;DHT22;10368;51.436;6.774;2022-11-15T08:20:40;11.50;99.90
20418;DHT22;10368;51.436;6.774;2022-11-15T08:23:07;11.50;99.90
20418;DHT22;10368;51.436;6.774;2022-11-15T08:25:35;11.50;99.90
20418;DHT22;10368;51.436;6.774;2022-11-15T08:28:04;11.50;99.90
20418;DHT22;10368;51.436;6.774;2022-11-15T08:30:38;11.50;99.90
20418;DHT22;10368;51.436;6.774;2022-11-15T08:33:11;11.40;99.90
20418;DHT22;10368;51.436;6.774;2022-11-15T08:35:39;11.50;99.90
20418;DHT22;10368;51.436;6.774;2022-11-15T08:38:06;11.50;99.90
20418;DHT22;10368;51.436;6.774;2022-11-15T08:40:33;11.50;99.90
20418;DHT22;10368;51.436;6.774;2022-11-15T08:43:00;11.50;99.90
20418;DHT22;10368;51.436;6.774;2022-11-15T08:45:29;11.50;99.90
20418;DHT22;10368;51.436;6.774;2022-11-15T08:47:56;11.50;99.90
20418;DHT22;10368;51.436;6.774;2022-11-15T08:50:23;11.60;99.90
20418;DHT22;10368;51.436;6.774;2022-11-15T08:52:50;11.60;99.90
20418;DHT22;10368;51.436;6.774;2022-11-15T08:55:17;11.70;99.90
20418;DHT22;10368;51.436;6.774;2022-11-15T08:57:44;11.60;99.90
20418;DHT22;10368;51.436;6.774;2022-11-15T09:00:12;11.70;99.90
20418;DHT22;10368;51.436;6.774;2022-11-15T09:02:40;11.70;99.90
20418;DHT22;10368;51.436;6.774;2022-11-15T09:05:07;11.70;99.90
20418;DHT22;10368;51.436;6.774;2022-11-15T09:07:34;11.80;99.90
20418;DHT22;10368;51.436;6.774;2022-11-15T09:10:01;11.80;99.90
20418;DHT22;10368;51.436;6.774;2022-11-15T09:12:28;11.80;99.90
20418;DHT22;10368;51.436;6.774;2022-11-15T09:14:55;11.90;99.90
20418;DHT22;10368;51.436;6.774;2022-11-15T09:17:21;11.90;99.90
20418;DHT22;10368;51.436;6.774;2022-11-15T09:19:50;11.90;99.90
20418;DHT22;10368;51.436;6.774;2022-11-15T09:22:17;12.00;99.90
20418;DHT22;10368;51.436;6.774;2022-11-15T09:32:13;12.50;99.90
20418;DHT22;10368;51.436;6.774;2022-11-15T09:34:40;12.40;99.90
20418;DHT22;10368;51.436;6.774;2022-11-15T09:37:06;12.50;99.90
20418;DHT22;10368;51.436;6.774;2022-11-15T09:39:33;12.50;99.90
20418;DHT22;10368;51.436;6.774;2022-11-15T09:50:15;12.60;99.90
20418;DHT22;10368;51.436;6.774;2022-11-15T09:52:45;12.60;99.90
20418;DHT22;10368;51.436;6.774;2022-11-15T09:55:13;12.70;99.90
20418;DHT22;10368;51.436;6.774;2022-11-15T09:57:55;12.70;99.90
20418;DHT22;10368;51.436;6.774;2022-11-15T10:05:47;12.90;99.90
20418;DHT22;10368;51.436;6.774;2022-11-15T10:08:40;12.80;99.90
20418;DHT22;10368;51.436;6.774;2022-11-15T10:11:17;12.80;99.90
20418;DHT22;10368;51.436;6.774;2022-11-15T10:14:20;12.80;99.90
20418;DHT22;10368;51.436;6.774;2022-11-15T10:25:21;13.00;99.90
20418;DHT22;10368;51.436;6.774;2022-11-15T10:27:56;13.20;99.90
20418;DHT22;10368;51.436;6.774;2022-11-15T10:30:33;13.10;99.90
20418;DHT22;10368;51.436;6.774;2022-11-15T10:35:51;13.30;99.90
20418;DHT22;10368;51.436;6.774;2022-11-15T10:46:38;13.70;99.90
20418;DHT22;10368;51.436;6.774;2022-11-15T10:52:16;14.10;99.90
20418;DHT22;10368;51.436;6.774;2022-11-15T10:57:26;14.00;99.90
20418;DHT22;10368;51.436;6.774;2022-11-15T11:00:01;14.10;99.90
20418;DHT22;10368;51.436;6.774;2022-11-15T11:02:35;14.30;99.90
20418;DHT22;10368;51.436;6.774;2022-11-15T11:05:05;14.30;99.90
20418;DHT22;10368;51.436;6.774;2022-11-15T11:07:34;14.40;99.90
20418;DHT22;10368;51.436;6.774;2022-11-15T11:10:21;14.50;99.90
20418;DHT22;10368;51.436;6.774;2022-11-15T11:25:03;15.00;99.90
20418;DHT22;10368;51.436;6.774;2022-11-15T11:33:31;14.70;99.90
20418;DHT22;10368;51.436;6.774;2022-11-15T11:36:20;14.70;99.90
20418;DHT22;10368;51.436;6.774;2022-11-15T11:41:58;14.40;99.90
20418;DHT22;10368;51.436;6.774;2022-11-15T11:50:28;14.80;99.90
20418;DHT22;10368;51.436;6.774;2022-11-15T11:53:06;14.50;99.90
20418;DHT22;10368;51.436;6.774;2022-11-15T11:55:49;14.60;99.90
20418;DHT22;10368;51.436;6.774;2022-11-15T11:58:41;14.60;99.90
20418;DHT22;10368;51.436;6.774;2022-11-15T12:07:03;14.80;99.10
20418;DHT22;10368;51.436;6.774;2022-11-15T12:10:01;15.00;98.50
20418;DHT22;10368;51.436;6.774;2022-11-15T12:15:27;15.30;98.10
20418;DHT22;10368;51.436;6.774;2022-11-15T12:17:56;15.30;97.40
20418;DHT22;10368;51.436;6.774;2022-11-15T12:20:27;15.30;96.60
20418;DHT22;10368;51.436;6.774;2022-11-15T12:23:03;15.40;96.20
20418;DHT22;10368;51.436;6.774;2022-11-15T12:25:45;15.60;99.10
20418;DHT22;10368;51.436;6.774;2022-11-15T12:30:52;15.40;95.20
20418;DHT22;10368;51.436;6.774;2022-11-15T12:36:33;15.60;94.90
20418;DHT22;10368;51.436;6.774;2022-11-15T12:39:06;15.60;94.40
20418;DHT22;10368;51.436;6.774;2022-11-15T12:41:35;15.50;93.90
20418;DHT22;10368;51.436;6.774;2022-11-15T12:44:03;15.60;93.60
20418;DHT22;10368;51.436;6.774;2022-11-15T12:57:26;16.00;92.90
20418;DHT22;10368;51.436;6.774;2022-11-15T12:59:56;16.30;92.20
20418;DHT22;10368;51.436;6.774;2022-11-15T13:02:39;16.60;91.40
20418;DHT22;10368;51.436;6.774;2022-11-15T13:28:20;15.50;94.60
20418;DHT22;10368;51.436;6.774;2022-11-15T13:33:38;15.30;95.30
20418;DHT22;10368;51.436;6.774;2022-11-15T13:36:08;15.20;95.20
20418;DHT22;10368;51.436;6.774;2022-11-15T13:38:40;15.00;95.90
20418;DHT22;10368;51.436;6.774;2022-11-15T13:41:31;14.90;96.30
20418;DHT22;10368;51.436;6.774;2022-11-15T13:44:00;14.80;96.20
20418;DHT22;10368;51.436;6.774;2022-11-15T13:46:30;14.80;96.50
20418;DHT22;10368;51.436;6.774;2022-11-15T13:49:04;14.80;96.90
20418;DHT22;10368;51.436;6.774;2022-11-15T13:51:53;14.70;97.00
20418;DHT22;10368;51.436;6.774;2022-11-15T13:54:24;14.80;97.20
20418;DHT22;10368;51.436;6.774;2022-11-15T13:59:33;14.80;97.40
20418;DHT22;10368;51.436;6.774;2022-11-15T14:02:31;14.90;97.50
20418;DHT22;10368;51.436;6.774;2022-11-15T14:05:15;14.90;97.70
20418;DHT22;10368;51.436;6.774;2022-11-15T14:08:04;14.80;97.50
20418;DHT22;10368;51.436;6.774;2022-11-15T14:10:39;14.70;97.90
20418;DHT22;10368;51.436;6.774;2022-11-15T14:13:27;14.80;98.00
20418;DHT22;10368;51.436;6.774;2022-11-15T14:15:54;14.60;98.40
20418;DHT22;10368;51.436;6.774;2022-11-15T14:18:48;14.60;98.90
20418;DHT22;10368;51.436;6.774;2022-11-15T14:21:17;14.70;98.50
20418;DHT22;10368;51.436;6.774;2022-11-15T14:23:45;14.70;98.50
20418;DHT22;10368;51.436;6.774;2022-11-15T14:26:33;14.60;98.60
20418;DHT22;10368;51.436;6.774;2022-11-15T14:29:28;14.50;99.40
20418;DHT22;10368;51.436;6.774;2022-11-15T14:32:24;14.60;99.10
20418;DHT22;10368;51.436;6.774;2022-11-15T14:34:56;14.50;99.30
20418;DHT22;10368;51.436;6.774;2022-11-15T14:37:26;14.40;99.50
20418;DHT22;10368;51.436;6.774;2022-11-15T14:39:54;14.40;99.70
20418;DHT22;10368;51.436;6.774;2022-11-15T14:42:23;14.30;99.90
20418;DHT22;10368;51.436;6.774;2022-11-15T14:44:50;14.30;99.90
20418;DHT22;10368;51.436;6.774;2022-11-15T14:47:17;14.20;99.90
20418;DHT22;10368;51.436;6.774;2022-11-15T14:49:44;14.10;99.90
20418;DHT22;10368;51.436;6.774;2022-11-15T14:52:34;14.10;99.90
20418;DHT22;10368;51.436;6.774;2022-11-15T14:55:04;14.20;99.90
20418;DHT22;10368;51.436;6.774;2022-11-15T14:57:37;14.10;99.90
20418;DHT22;10368;51.436;6.774;2022-11-15T15:00:04;14.00;99.90
20418;DHT22;10368;51.436;6.774;2022-11-15T15:02:31;14.00;99.90
20418;DHT22;10368;51.436;6.774;2022-11-15T15:04:58;14.00;99.90
20418;DHT22;10368;51.436;6.774;2022-11-15T15:07:27;14.00;99.90
20418;DHT22;10368;51.436;6.774;2022-11-15T15:09:54;14.00;99.90
20418;DHT22;10368;51.436;6.774;2022-11-15T15:12:41;14.00;99.90
20418;DHT22;10368;51.436;6.774;2022-11-15T15:15:22;13.90;99.90
20418;DHT22;10368;51.436;6.774;2022-11-15T15:17:50;13.90;99.90
20418;DHT22;10368;51.436;6.774;2022-11-15T15:20:17;13.90;99.90
20418;DHT22;10368;51.436;6.774;2022-11-15T15:22:44;13.90;99.90
20418;DHT22;10368;51.436;6.774;2022-11-15T15:27:47;13.80;99.90
20418;DHT22;10368;51.436;6.774;2022-11-15T15:30:14;13.80;99.90
20418;DHT22;10368;51.436;6.774;2022-11-15T15:32:41;13.80;99.90
20418;DHT22;10368;51.436;6.774;2022-11-15T15:35:12;13.80;99.90
20418;DHT22;10368;51.436;6.774;2022-11-15T15:37:40;13.80;99.90
20418;DHT22;10368;51.436;6.774;2022-11-15T15:40:14;13.70;99.90
20418;DHT22;10368;51.436;6.774;2022-11-15T15:42:42;13.80;99.90
20418;DHT22;10368;51.436;6.774;2022-11-15T15:45:10;13.80;99.90
20418;DHT22;10368;51.436;6.774;2022-11-15T15:47:37;13.70;99.90
20418;DHT22;10368;51.436;6.774;2022-11-15T15:50:14;13.70;99.90
20418;DHT22;10368;51.436;6.774;2022-11-15T15:52:43;13.70;99.90
20418;DHT22;10368;51.436;6.774;2022-11-15T15:55:10;13.70;99.90
20418;DHT22;10368;51.436;6.774;2022-11-15T15:57:37;13.70;99.90
20418;DHT22;10368;51.436;6.774;2022-11-15T16:00:05;13.70;99.90
20418;DHT22;10368;51.436;6.774;2022-11-15T16:02:32;13.70;99.90
20418;DHT22;10368;51.436;6.774;2022-11-15T16:05:06;13.70;99.90
20418;DHT22;10368;51.436;6.774;2022-11-15T16:07:33;13.70;99.90
20418;DHT22;10368;51.436;6.774;2022-11-15T16:10:01;13.70;99.90
20418;DHT22;10368;51.436;6.774;2022-11-15T16:12:35;13.70;99.90
20418;DHT22;10368;51.436;6.774;2022-11-15T16:15:02;13.60;99.90
20418;DHT22;10368;51.436;6.774;2022-11-15T16:17:34;13.60;99.90
20418;DHT22;10368;51.436;6.774;2022-11-15T16:20:02;13.70;99.90
20418;DHT22;10368;51.436;6.774;2022-11-15T16:22:29;13.70;99.90
20418;DHT22;10368;51.436;6.774;2022-11-15T16:24:56;13.70;99.90
20418;DHT22;10368;51.436;6.774;2022-11-15T16:27:23;13.70;99.90
20418;DHT22;10368;51.436;6.774;2022-11-15T16:29:50;13.70;99.90
20418;DHT22;10368;51.436;6.774;2022-11-15T16:32:17;13.60;99.90
20418;DHT22;10368;51.436;6.774;2022-11-15T16:34:44;13.60;99.90
20418;DHT22;10368;51.436;6.774;2022-11-15T16:37:23;13.60;99.90
20418;DHT22;10368;51.436;6.774;2022-11-15T16:39:50;13.60;99.90
20418;DHT22;10368;51.436;6.774;2022-11-15T16:42:22;13.70;99.90
20418;DHT22;10368;51.436;6.774;2022-11-15T16:44:49;13.70;99.90
20418;DHT22;10368;51.436;6.774;2022-11-15T16:47:19;13.70;99.90
20418;DHT22;10368;51.436;6.774;2022-11-15T16:49:46;13.70;99.90
20418;DHT22;10368;51.436;6.774;2022-11-15T16:52:13;13.60;99.90
20418;DHT22;10368;51.436;6.774;2022-11-15T16:54:46;13.60;99.90
20418;DHT22;10368;51.436;6.774;2022-11-15T16:57:13;13.60;99.90
20418;DHT22;10368;51.436;6.774;2022-11-15T16:59:42;13.50;99.90
20418;DHT22;10368;51.436;6.774;2022-11-15T17:02:12;13.60;99.90
20418;DHT22;10368;51.436;6.774;2022-11-15T17:04:39;13.60;99.90
20418;DHT22;10368;51.436;6.774;2022-11-15T17:07:07;13.60;99.90
20418;DHT22;10368;51.436;6.774;2022-11-15T17:09:33;13.60;99.90
20418;DHT22;10368;51.436;6.774;2022-11-15T17:12:00;13.50;99.90
20418;DHT22;10368;51.436;6.774;2022-11-15T17:14:28;13.60;99.90
20418;DHT22;10368;51.436;6.774;2022-11-15T17:16:54;13.60;99.90
20418;DHT22;10368;51.436;6.774;2022-11-15T17:19:21;13.60;99.90
20418;DHT22;10368;51.436;6.774;2022-11-15T17:21:48;13.60;99.90
20418;DHT22;10368;51.436;6.774;2022-11-15T17:24:15;13.60;99.90
20418;DHT22;10368;51.436;6.774;2022-11-15T17:26:42;13.60;99.90
20418;DHT22;10368;51.436;6.774;2022-11-15T17:29:09;13.70;99.90
20418;DHT22;10368;51.436;6.774;2022-11-15T17:31:37;13.70;99.90
20418;DHT22;10368;51.436;6.774;2022-11-15T17:34:05;13.70;99.90
20418;DHT22;10368;51.436;6.774;2022-11-15T17:36:32;13.70;99.90
20418;DHT22;10368;51.436;6.774;2022-11-15T17:38:59;13.70;99.90
20418;DHT22;10368;51.436;6.774;2022-11-15T17:41:27;13.70;99.90
20418;DHT22;10368;51.436;6.774;2022-11-15T17:43:58;13.70;99.90
20418;DHT22;10368;51.436;6.774;2022-11-15T17:46:26;13.70;99.90
20418;DHT22;10368;51.436;6.774;2022-11-15T17:48:54;13.70;99.90
20418;DHT22;10368;51.436;6.774;2022-11-15T17:51:21;13.80;99.90
20418;DHT22;10368;51.436;6.774;2022-11-15T17:53:50;13.80;99.90
20418;DHT22;10368;51.436;6.774;2022-11-15T17:56:19;13.80;99.90
20418;DHT22;10368;51.436;6.774;2022-11-15T17:58:48;13.80;99.90
20418;DHT22;10368;51.436;6.774;2022-11-15T18:01:21;13.80;99.90
20418;DHT22;10368;51.436;6.774;2022-11-15T18:03:49;13.80;99.90
20418;DHT22;10368;51.436;6.774;2022-11-15T18:06:17;13.80;99.90
20418;DHT22;10368;51.436;6.774;2022-11-15T18:08:45;13.80;99.90
20418;DHT22;10368;51.436;6.774;2022-11-15T18:13:43;13.80;99.90
20418;DHT22;10368;51.436;6.774;2022-11-15T18:16:19;13.80;99.90
20418;DHT22;10368;51.436;6.774;2022-11-15T18:18:47;13.90;99.90
20418;DHT22;10368;51.436;6.774;2022-11-15T18:21:15;13.80;99.90
20418;DHT22;10368;51.436;6.774;2022-11-15T18:23:44;13.80;99.90
20418;DHT22;10368;51.436;6.774;2022-11-15T18:26:13;13.80;99.90
20418;DHT22;10368;51.436;6.774;2022-11-15T18:28:43;13.80;99.90
20418;DHT22;10368;51.436;6.774;2022-11-15T18:31:18;13.70;99.90
20418;DHT22;10368;51.436;6.774;2022-11-15T18:33:45;13.70;99.90
20418;DHT22;10368;51.436;6.774;2022-11-15T18:36:15;13.70;99.90